sensor_id;sensor_type;location;lat;lon;timestamp;P1;durP1;ratioP1;P2;durP2;ratioP2
60038;SDS011;45916;52.734;6.544;2023-03-26T00:00:10;10.32;;;2.97;;
60038;SDS011;45916;52.734;6.544;2023-03-26T00:02:37;12.40;;;3.30;;
60038;SDS011;45916;52.734;6.544;2023-03-26T00:05:04;11.48;;;3.55;;
60038;SDS011;45916;52.734;6.544;2023-03-26T00:07:31;11.30;;;3.53;;
60038;SDS011;45916;52.734;6.544;2023-03-26T00:09:56;12.10;;;3.35;;
60038;SDS011;45916;52.734;6.544;2023-03-26T00:12:23;10.20;;;2.97;;
60038;SDS011;45916;52.734;6.544;2023-03-26T00:14:50;10.35;;;3.95;;
60038;SDS011;45916;52.734;6.544;2023-03-26T00:17:16;11.48;;;3.92;;
60038;SDS011;45916;52.734;6.544;2023-03-26T00:19:42;10.25;;;3.83;;
60038;SDS011;45916;52.734;6.544;2023-03-26T00:22:08;10.63;;;3.60;;
60038;SDS011;45916;52.734;6.544;2023-03-26T00:24:37;12.40;;;3.33;;
60038;SDS011;45916;52.734;6.544;2023-03-26T00:27:04;11.10;;;3.58;;
60038;SDS011;45916;52.734;6.544;2023-03-26T00:29:30;12.57;;;3.35;;
60038;SDS011;45916;52.734;6.544;2023-03-26T00:31:57;8.98;;;3.03;;
60038;SDS011;45916;52.734;6.544;2023-03-26T00:34:23;9.23;;;3.38;;
60038;SDS011;45916;52.734;6.544;2023-03-26T00:36:50;8.38;;;3.20;;
60038;SDS011;45916;52.734;6.544;2023-03-26T00:39:20;9.93;;;3.40;;
60038;SDS011;45916;52.734;6.544;2023-03-26T00:41:47;8.88;;;3.70;;
60038;SDS011;45916;52.734;6.544;2023-03-26T00:44:18;7.65;;;2.70;;
60038;SDS011;45916;52.734;6.544;2023-03-26T00:46:43;10.10;;;3.22;;
60038;SDS011;45916;52.734;6.544;2023-03-26T00:49:09;9.18;;;3.05;;
60038;SDS011;45916;52.734;6.544;2023-03-26T00:51:38;8.73;;;2.90;;
60038;SDS011;45916;52.734;6.544;2023-03-26T00:54:05;13.27;;;3.38;;
60038;SDS011;45916;52.734;6.544;2023-03-26T00:56:32;8.48;;;3.05;;
60038;SDS011;45916;52.734;6.544;2023-03-26T00:58:58;9.52;;;3.17;;
60038;SDS011;45916;52.734;6.544;2023-03-26T01:01:25;9.50;;;3.78;;
60038;SDS011;45916;52.734;6.544;2023-03-26T01:03:53;12.63;;;3.70;;
60038;SDS011;45916;52.734;6.544;2023-03-26T01:06:28;11.63;;;3.28;;
60038;SDS011;45916;52.734;6.544;2023-03-26T01:08:57;15.13;;;3.17;;
60038;SDS011;45916;52.734;6.544;2023-03-26T01:11:30;7.32;;;3.35;;
60038;SDS011;45916;52.734;6.544;2023-03-26T01:14:07;12.63;;;4.03;;
60038;SDS011;45916;52.734;6.544;2023-03-26T01:16:42;9.35;;;3.30;;
60038;SDS011;45916;52.734;6.544;2023-03-26T01:19:13;9.23;;;3.08;;
60038;SDS011;45916;52.734;6.544;2023-03-26T01:21:45;9.38;;;3.70;;
60038;SDS011;45916;52.734;6.544;2023-03-26T01:24:12;9.20;;;3.35;;
60038;SDS011;45916;52.734;6.544;2023-03-26T01:26:57;10.27;;;3.47;;
60038;SDS011;45916;52.734;6.544;2023-03-26T01:32:05;7.50;;;3.13;;
60038;SDS011;45916;52.734;6.544;2023-03-26T01:42:55;9.73;;;3.33;;
60038;SDS011;45916;52.734;6.544;2023-03-26T01:45:33;9.80;;;3.73;;
60038;SDS011;45916;52.734;6.544;2023-03-26T01:48:01;8.73;;;3.70;;
60038;SDS011;45916;52.734;6.544;2023-03-26T01:50:28;9.18;;;3.35;;
60038;SDS011;45916;52.734;6.544;2023-03-26T01:52:54;9.68;;;3.38;;
60038;SDS011;45916;52.734;6.544;2023-03-26T01:55:20;8.40;;;3.08;;
60038;SDS011;45916;52.734;6.544;2023-03-26T01:58:13;7.57;;;3.03;;
60038;SDS011;45916;52.734;6.544;2023-03-26T02:03:38;7.55;;;3.20;;
60038;SDS011;45916;52.734;6.544;2023-03-26T02:06:29;9.30;;;3.85;;
60038;SDS011;45916;52.734;6.544;2023-03-26T02:09:05;9.05;;;3.65;;
60038;SDS011;45916;52.734;6.544;2023-03-26T02:11:34;9.80;;;3.35;;
60038;SDS011;45916;52.734;6.544;2023-03-26T02:14:02;7.20;;;3.33;;
60038;SDS011;45916;52.734;6.544;2023-03-26T02:18:55;10.85;;;3.58;;
60038;SDS011;45916;52.734;6.544;2023-03-26T02:21:23;9.38;;;3.38;;
60038;SDS011;45916;52.734;6.544;2023-03-26T02:23:52;7.60;;;3.58;;
60038;SDS011;45916;52.734;6.544;2023-03-26T02:26:26;11.65;;;4.35;;
60038;SDS011;45916;52.734;6.544;2023-03-26T02:28:53;8.82;;;4.32;;
60038;SDS011;45916;52.734;6.544;2023-03-26T02:31:19;12.43;;;6.53;;
60038;SDS011;45916;52.734;6.544;2023-03-26T02:33:45;13.90;;;8.93;;
60038;SDS011;45916;52.734;6.544;2023-03-26T02:36:14;13.35;;;8.27;;
60038;SDS011;45916;52.734;6.544;2023-03-26T02:38:42;14.43;;;9.60;;
60038;SDS011;45916;52.734;6.544;2023-03-26T02:41:08;14.45;;;10.35;;
60038;SDS011;45916;52.734;6.544;2023-03-26T02:43:33;13.88;;;10.13;;
60038;SDS011;45916;52.734;6.544;2023-03-26T02:45:59;11.98;;;8.68;;
60038;SDS011;45916;52.734;6.544;2023-03-26T02:48:24;11.88;;;7.60;;
60038;SDS011;45916;52.734;6.544;2023-03-26T02:50:51;15.57;;;12.25;;
60038;SDS011;45916;52.734;6.544;2023-03-26T02:53:21;13.68;;;12.25;;
60038;SDS011;45916;52.734;6.544;2023-03-26T02:55:47;15.80;;;11.18;;
60038;SDS011;45916;52.734;6.544;2023-03-26T02:58:14;13.32;;;11.20;;
60038;SDS011;45916;52.734;6.544;2023-03-26T03:00:42;10.87;;;8.80;;
60038;SDS011;45916;52.734;6.544;2023-03-26T03:03:08;13.48;;;10.38;;
60038;SDS011;45916;52.734;6.544;2023-03-26T03:05:34;19.38;;;12.23;;
60038;SDS011;45916;52.734;6.544;2023-03-26T03:08:02;15.63;;;11.98;;
60038;SDS011;45916;52.734;6.544;2023-03-26T03:10:29;17.15;;;11.55;;
60038;SDS011;45916;52.734;6.544;2023-03-26T03:12:57;13.23;;;9.30;;
60038;SDS011;45916;52.734;6.544;2023-03-26T03:15:23;14.38;;;10.60;;
60038;SDS011;45916;52.734;6.544;2023-03-26T03:17:49;13.45;;;8.10;;
60038;SDS011;45916;52.734;6.544;2023-03-26T03:20:15;14.70;;;9.10;;
60038;SDS011;45916;52.734;6.544;2023-03-26T03:22:41;16.42;;;8.13;;
60038;SDS011;45916;52.734;6.544;2023-03-26T03:25:07;13.13;;;7.07;;
60038;SDS011;45916;52.734;6.544;2023-03-26T03:27:38;14.23;;;5.88;;
60038;SDS011;45916;52.734;6.544;2023-03-26T03:30:05;10.23;;;5.70;;
60038;SDS011;45916;52.734;6.544;2023-03-26T03:32:32;11.48;;;6.32;;
60038;SDS011;45916;52.734;6.544;2023-03-26T03:34:58;10.63;;;6.53;;
60038;SDS011;45916;52.734;6.544;2023-03-26T03:37:23;10.10;;;5.43;;
60038;SDS011;45916;52.734;6.544;2023-03-26T03:39:51;10.27;;;4.60;;
60038;SDS011;45916;52.734;6.544;2023-03-26T03:42:16;11.25;;;5.13;;
60038;SDS011;45916;52.734;6.544;2023-03-26T03:44:42;8.70;;;4.68;;
60038;SDS011;45916;52.734;6.544;2023-03-26T03:47:08;11.45;;;4.80;;
60038;SDS011;45916;52.734;6.544;2023-03-26T03:49:37;9.73;;;4.30;;
60038;SDS011;45916;52.734;6.544;2023-03-26T03:52:06;9.15;;;4.13;;
60038;SDS011;45916;52.734;6.544;2023-03-26T03:54:32;9.23;;;3.63;;
60038;SDS011;45916;52.734;6.544;2023-03-26T03:56:57;7.30;;;2.63;;
60038;SDS011;45916;52.734;6.544;2023-03-26T03:59:23;8.10;;;2.85;;
60038;SDS011;45916;52.734;6.544;2023-03-26T04:01:49;7.15;;;3.20;;
60038;SDS011;45916;52.734;6.544;2023-03-26T04:04:15;10.10;;;3.50;;
60038;SDS011;45916;52.734;6.544;2023-03-26T04:06:42;7.40;;;3.75;;
60038;SDS011;45916;52.734;6.544;2023-03-26T04:09:08;9.80;;;4.63;;
60038;SDS011;45916;52.734;6.544;2023-03-26T04:11:34;10.30;;;4.53;;
60038;SDS011;45916;52.734;6.544;2023-03-26T04:14:00;9.43;;;3.97;;
60038;SDS011;45916;52.734;6.544;2023-03-26T04:16:26;11.90;;;4.68;;
60038;SDS011;45916;52.734;6.544;2023-03-26T04:18:52;8.82;;;4.53;;
60038;SDS011;45916;52.734;6.544;2023-03-26T04:21:18;9.55;;;4.22;;
60038;SDS011;45916;52.734;6.544;2023-03-26T04:23:44;9.43;;;4.60;;
60038;SDS011;45916;52.734;6.544;2023-03-26T04:26:14;11.27;;;5.03;;
60038;SDS011;45916;52.734;6.544;2023-03-26T04:28:46;10.88;;;4.72;;
60038;SDS011;45916;52.734;6.544;2023-03-26T04:31:41;9.88;;;4.30;;
60038;SDS011;45916;52.734;6.544;2023-03-26T04:34:19;8.32;;;4.22;;
60038;SDS011;45916;52.734;6.544;2023-03-26T04:36:50;8.25;;;4.53;;
60038;SDS011;45916;52.734;6.544;2023-03-26T04:39:18;9.35;;;4.65;;
60038;SDS011;45916;52.734;6.544;2023-03-26T04:41:46;8.30;;;4.27;;
60038;SDS011;45916;52.734;6.544;2023-03-26T04:44:12;12.75;;;5.53;;
60038;SDS011;45916;52.734;6.544;2023-03-26T04:46:41;9.18;;;4.75;;
60038;SDS011;45916;52.734;6.544;2023-03-26T04:49:07;8.95;;;4.97;;
60038;SDS011;45916;52.734;6.544;2023-03-26T04:51:37;10.90;;;5.43;;
60038;SDS011;45916;52.734;6.544;2023-03-26T04:54:06;10.38;;;4.63;;
60038;SDS011;45916;52.734;6.544;2023-03-26T04:56:39;9.85;;;5.40;;
60038;SDS011;45916;52.734;6.544;2023-03-26T04:59:29;11.90;;;6.47;;
60038;SDS011;45916;52.734;6.544;2023-03-26T05:01:59;13.38;;;5.93;;
60038;SDS011;45916;52.734;6.544;2023-03-26T05:04:26;11.20;;;5.23;;
60038;SDS011;45916;52.734;6.544;2023-03-26T05:06:58;12.80;;;5.80;;
60038;SDS011;45916;52.734;6.544;2023-03-26T05:09:25;12.00;;;6.50;;
60038;SDS011;45916;52.734;6.544;2023-03-26T05:11:51;11.32;;;5.63;;
60038;SDS011;45916;52.734;6.544;2023-03-26T05:14:17;13.98;;;6.35;;
60038;SDS011;45916;52.734;6.544;2023-03-26T05:16:44;13.02;;;6.82;;
60038;SDS011;45916;52.734;6.544;2023-03-26T05:19:11;11.45;;;5.07;;
60038;SDS011;45916;52.734;6.544;2023-03-26T05:21:38;12.90;;;5.53;;
60038;SDS011;45916;52.734;6.544;2023-03-26T05:24:04;11.15;;;6.13;;
60038;SDS011;45916;52.734;6.544;2023-03-26T05:26:31;13.68;;;6.57;;
60038;SDS011;45916;52.734;6.544;2023-03-26T05:28:57;12.32;;;5.78;;
60038;SDS011;45916;52.734;6.544;2023-03-26T05:31:23;12.80;;;5.53;;
60038;SDS011;45916;52.734;6.544;2023-03-26T05:33:51;13.45;;;6.00;;
60038;SDS011;45916;52.734;6.544;2023-03-26T05:36:17;12.98;;;6.47;;
60038;SDS011;45916;52.734;6.544;2023-03-26T05:38:43;14.18;;;5.72;;
60038;SDS011;45916;52.734;6.544;2023-03-26T05:41:11;14.35;;;6.20;;
60038;SDS011;45916;52.734;6.544;2023-03-26T05:43:37;10.30;;;5.60;;
60038;SDS011;45916;52.734;6.544;2023-03-26T05:46:03;12.52;;;5.97;;
60038;SDS011;45916;52.734;6.544;2023-03-26T05:48:29;11.98;;;5.60;;
60038;SDS011;45916;52.734;6.544;2023-03-26T05:50:55;12.27;;;6.25;;
60038;SDS011;45916;52.734;6.544;2023-03-26T05:53:22;12.68;;;5.25;;
60038;SDS011;45916;52.734;6.544;2023-03-26T05:55:49;12.10;;;5.72;;
60038;SDS011;45916;52.734;6.544;2023-03-26T05:58:19;11.48;;;6.40;;
60038;SDS011;45916;52.734;6.544;2023-03-26T06:00:45;14.27;;;5.57;;
60038;SDS011;45916;52.734;6.544;2023-03-26T06:03:12;10.15;;;5.82;;
60038;SDS011;45916;52.734;6.544;2023-03-26T06:05:40;13.88;;;5.95;;
60038;SDS011;45916;52.734;6.544;2023-03-26T06:08:07;12.48;;;5.88;;
60038;SDS011;45916;52.734;6.544;2023-03-26T06:10:35;12.80;;;5.28;;
60038;SDS011;45916;52.734;6.544;2023-03-26T06:13:02;11.20;;;5.90;;
60038;SDS011;45916;52.734;6.544;2023-03-26T06:15:28;11.02;;;5.72;;
60038;SDS011;45916;52.734;6.544;2023-03-26T06:17:54;9.85;;;5.65;;
60038;SDS011;45916;52.734;6.544;2023-03-26T06:20:20;12.23;;;5.57;;
60038;SDS011;45916;52.734;6.544;2023-03-26T06:22:45;10.90;;;5.47;;
60038;SDS011;45916;52.734;6.544;2023-03-26T06:25:11;11.75;;;5.78;;
60038;SDS011;45916;52.734;6.544;2023-03-26T06:27:37;14.55;;;6.70;;
60038;SDS011;45916;52.734;6.544;2023-03-26T06:30:02;9.88;;;5.75;;
60038;SDS011;45916;52.734;6.544;2023-03-26T06:32:28;12.27;;;6.55;;
60038;SDS011;45916;52.734;6.544;2023-03-26T06:34:54;11.80;;;6.93;;
60038;SDS011;45916;52.734;6.544;2023-03-26T06:37:20;14.32;;;7.10;;
60038;SDS011;45916;52.734;6.544;2023-03-26T06:39:46;14.27;;;6.75;;
60038;SDS011;45916;52.734;6.544;2023-03-26T06:42:11;14.25;;;5.85;;
60038;SDS011;45916;52.734;6.544;2023-03-26T06:44:37;14.50;;;6.35;;
60038;SDS011;45916;52.734;6.544;2023-03-26T06:47:03;13.65;;;5.55;;
60038;SDS011;45916;52.734;6.544;2023-03-26T06:49:28;13.40;;;6.38;;
60038;SDS011;45916;52.734;6.544;2023-03-26T06:51:54;13.07;;;6.30;;
60038;SDS011;45916;52.734;6.544;2023-03-26T06:54:20;16.10;;;6.38;;
60038;SDS011;45916;52.734;6.544;2023-03-26T06:56:45;11.82;;;5.50;;
60038;SDS011;45916;52.734;6.544;2023-03-26T06:59:11;16.98;;;6.45;;
60038;SDS011;45916;52.734;6.544;2023-03-26T07:01:37;15.20;;;6.43;;
60038;SDS011;45916;52.734;6.544;2023-03-26T07:04:02;12.65;;;5.75;;
60038;SDS011;45916;52.734;6.544;2023-03-26T07:06:28;16.50;;;6.47;;
60038;SDS011;45916;52.734;6.544;2023-03-26T07:08:54;18.85;;;5.72;;
60038;SDS011;45916;52.734;6.544;2023-03-26T07:11:21;17.05;;;5.68;;
60038;SDS011;45916;52.734;6.544;2023-03-26T07:13:49;13.48;;;5.63;;
60038;SDS011;45916;52.734;6.544;2023-03-26T07:16:15;15.82;;;5.38;;
60038;SDS011;45916;52.734;6.544;2023-03-26T07:18:41;16.45;;;5.63;;
60038;SDS011;45916;52.734;6.544;2023-03-26T07:21:07;17.05;;;5.88;;
60038;SDS011;45916;52.734;6.544;2023-03-26T07:23:33;18.45;;;5.15;;
60038;SDS011;45916;52.734;6.544;2023-03-26T07:26:00;13.55;;;4.85;;
60038;SDS011;45916;52.734;6.544;2023-03-26T07:29:17;14.30;;;4.75;;
60038;SDS011;45916;52.734;6.544;2023-03-26T07:45:57;15.52;;;4.68;;
60038;SDS011;45916;52.734;6.544;2023-03-26T07:48:24;16.55;;;4.35;;
60038;SDS011;45916;52.734;6.544;2023-03-26T07:50:54;14.88;;;3.78;;
60038;SDS011;45916;52.734;6.544;2023-03-26T07:53:21;17.60;;;4.18;;
60038;SDS011;45916;52.734;6.544;2023-03-26T08:00:49;15.75;;;4.88;;
60038;SDS011;45916;52.734;6.544;2023-03-26T08:08:57;18.52;;;4.47;;
60038;SDS011;45916;52.734;6.544;2023-03-26T08:14:16;14.20;;;4.38;;
60038;SDS011;45916;52.734;6.544;2023-03-26T08:17:02;18.05;;;3.90;;
60038;SDS011;45916;52.734;6.544;2023-03-26T08:19:39;17.00;;;4.05;;
60038;SDS011;45916;52.734;6.544;2023-03-26T08:22:13;15.00;;;4.03;;
60038;SDS011;45916;52.734;6.544;2023-03-26T08:27:30;16.80;;;4.53;;
60038;SDS011;45916;52.734;6.544;2023-03-26T08:30:21;13.70;;;4.20;;
60038;SDS011;45916;52.734;6.544;2023-03-26T08:32:53;13.18;;;4.47;;
60038;SDS011;45916;52.734;6.544;2023-03-26T08:35:20;15.52;;;4.85;;
60038;SDS011;45916;52.734;6.544;2023-03-26T08:37:47;14.93;;;4.03;;
60038;SDS011;45916;52.734;6.544;2023-03-26T08:40:15;11.00;;;3.90;;
60038;SDS011;45916;52.734;6.544;2023-03-26T09:27:37;16.92;;;4.15;;
60038;SDS011;45916;52.734;6.544;2023-03-26T09:35:48;12.15;;;3.60;;
60038;SDS011;45916;52.734;6.544;2023-03-26T09:40:54;16.35;;;3.95;;
60038;SDS011;45916;52.734;6.544;2023-03-26T09:49:48;14.63;;;4.47;;
60038;SDS011;45916;52.734;6.544;2023-03-26T10:01:01;14.13;;;4.13;;
60038;SDS011;45916;52.734;6.544;2023-03-26T10:03:47;12.60;;;3.75;;
60038;SDS011;45916;52.734;6.544;2023-03-26T10:19:58;15.10;;;4.78;;
60038;SDS011;45916;52.734;6.544;2023-03-26T10:28:02;11.27;;;3.83;;
60038;SDS011;45916;52.734;6.544;2023-03-26T10:33:27;11.23;;;4.05;;
60038;SDS011;45916;52.734;6.544;2023-03-26T10:36:01;15.27;;;4.03;;
60038;SDS011;45916;52.734;6.544;2023-03-26T10:41:26;12.35;;;3.20;;
60038;SDS011;45916;52.734;6.544;2023-03-26T10:52:40;14.55;;;3.38;;
60038;SDS011;45916;52.734;6.544;2023-03-26T10:55:30;10.07;;;2.75;;
60038;SDS011;45916;52.734;6.544;2023-03-26T10:58:03;12.15;;;4.10;;
60038;SDS011;45916;52.734;6.544;2023-03-26T11:00:32;9.65;;;2.97;;
60038;SDS011;45916;52.734;6.544;2023-03-26T11:11:35;12.60;;;3.25;;
60038;SDS011;45916;52.734;6.544;2023-03-26T11:14:16;11.20;;;2.97;;
60038;SDS011;45916;52.734;6.544;2023-03-26T11:19:57;11.05;;;3.22;;
60038;SDS011;45916;52.734;6.544;2023-03-26T11:34:05;12.18;;;3.03;;
60038;SDS011;45916;52.734;6.544;2023-03-26T11:36:30;9.32;;;2.78;;
60038;SDS011;45916;52.734;6.544;2023-03-26T11:39:02;9.00;;;3.00;;
60038;SDS011;45916;52.734;6.544;2023-03-26T11:41:34;12.20;;;3.35;;
60038;SDS011;45916;52.734;6.544;2023-03-26T11:47:08;10.50;;;3.38;;
60038;SDS011;45916;52.734;6.544;2023-03-26T11:49:36;9.82;;;2.92;;
60038;SDS011;45916;52.734;6.544;2023-03-26T11:52:03;9.30;;;2.65;;
60038;SDS011;45916;52.734;6.544;2023-03-26T11:54:29;10.85;;;3.28;;
60038;SDS011;45916;52.734;6.544;2023-03-26T11:57:02;11.00;;;3.08;;
60038;SDS011;45916;52.734;6.544;2023-03-26T11:59:36;11.30;;;3.45;;
60038;SDS011;45916;52.734;6.544;2023-03-26T12:07:11;10.80;;;3.40;;
60038;SDS011;45916;52.734;6.544;2023-03-26T12:09:52;9.80;;;3.50;;
60038;SDS011;45916;52.734;6.544;2023-03-26T12:12:20;9.32;;;3.20;;
60038;SDS011;45916;52.734;6.544;2023-03-26T12:14:49;7.28;;;2.80;;
60038;SDS011;45916;52.734;6.544;2023-03-26T12:17:32;9.30;;;2.85;;
60038;SDS011;45916;52.734;6.544;2023-03-26T12:20:49;10.43;;;3.00;;
60038;SDS011;45916;52.734;6.544;2023-03-26T12:22:56;9.82;;;2.78;;
60038;SDS011;45916;52.734;6.544;2023-03-26T12:25:24;12.50;;;2.70;;
60038;SDS011;45916;52.734;6.544;2023-03-26T12:27:56;8.85;;;3.08;;
60038;SDS011;45916;52.734;6.544;2023-03-26T12:30:56;10.80;;;3.22;;
60038;SDS011;45916;52.734;6.544;2023-03-26T12:35:58;7.25;;;3.33;;
60038;SDS011;45916;52.734;6.544;2023-03-26T12:38:40;12.25;;;3.10;;
60038;SDS011;45916;52.734;6.544;2023-03-26T12:41:19;12.35;;;3.30;;
60038;SDS011;45916;52.734;6.544;2023-03-26T12:43:57;12.93;;;3.80;;
60038;SDS011;45916;52.734;6.544;2023-03-26T12:46:42;12.18;;;3.17;;
60038;SDS011;45916;52.734;6.544;2023-03-26T12:49:11;13.38;;;3.63;;
60038;SDS011;45916;52.734;6.544;2023-03-26T13:05:07;13.90;;;3.35;;
60038;SDS011;45916;52.734;6.544;2023-03-26T13:13:41;10.85;;;3.45;;
60038;SDS011;45916;52.734;6.544;2023-03-26T13:16:45;9.15;;;2.83;;
60038;SDS011;45916;52.734;6.544;2023-03-26T13:19:22;10.02;;;3.40;;
60038;SDS011;45916;52.734;6.544;2023-03-26T13:35:47;10.63;;;3.40;;
60038;SDS011;45916;52.734;6.544;2023-03-26T13:41:20;15.93;;;4.65;;
60038;SDS011;45916;52.734;6.544;2023-03-26T13:47:00;14.18;;;3.95;;
60038;SDS011;45916;52.734;6.544;2023-03-26T13:49:59;11.43;;;3.00;;
60038;SDS011;45916;52.734;6.544;2023-03-26T13:52:40;10.82;;;2.97;;
60038;SDS011;45916;52.734;6.544;2023-03-26T13:55:18;9.93;;;3.10;;
60038;SDS011;45916;52.734;6.544;2023-03-26T14:01:05;10.20;;;3.35;;
60038;SDS011;45916;52.734;6.544;2023-03-26T14:08:57;11.85;;;3.35;;
60038;SDS011;45916;52.734;6.544;2023-03-26T14:11:41;11.30;;;2.80;;
60038;SDS011;45916;52.734;6.544;2023-03-26T14:14:27;8.25;;;2.75;;
60038;SDS011;45916;52.734;6.544;2023-03-26T14:17:05;8.13;;;2.75;;
60038;SDS011;45916;52.734;6.544;2023-03-26T14:20:07;13.45;;;3.15;;
60038;SDS011;45916;52.734;6.544;2023-03-26T14:31:27;9.82;;;2.60;;
60038;SDS011;45916;52.734;6.544;2023-03-26T14:37:02;10.98;;;3.30;;
60038;SDS011;45916;52.734;6.544;2023-03-26T14:42:18;10.88;;;2.40;;
60038;SDS011;45916;52.734;6.544;2023-03-26T14:45:05;14.18;;;2.95;;
60038;SDS011;45916;52.734;6.544;2023-03-26T14:48:03;9.93;;;2.58;;
60038;SDS011;45916;52.734;6.544;2023-03-26T14:53:44;9.65;;;2.72;;
60038;SDS011;45916;52.734;6.544;2023-03-26T14:56:29;11.38;;;3.28;;
60038;SDS011;45916;52.734;6.544;2023-03-26T15:22:13;8.98;;;2.15;;
60038;SDS011;45916;52.734;6.544;2023-03-26T15:33:54;8.30;;;2.42;;
60038;SDS011;45916;52.734;6.544;2023-03-26T15:42:36;9.80;;;2.75;;
60038;SDS011;45916;52.734;6.544;2023-03-26T15:45:13;10.85;;;2.58;;
60038;SDS011;45916;52.734;6.544;2023-03-26T15:58:51;11.65;;;2.83;;
60038;SDS011;45916;52.734;6.544;2023-03-26T16:01:32;8.70;;;2.60;;
60038;SDS011;45916;52.734;6.544;2023-03-26T16:07:28;9.30;;;2.30;;
60038;SDS011;45916;52.734;6.544;2023-03-26T16:10:24;10.93;;;2.80;;
60038;SDS011;45916;52.734;6.544;2023-03-26T16:21:33;10.13;;;2.85;;
60038;SDS011;45916;52.734;6.544;2023-03-26T16:29:19;10.73;;;2.92;;
60038;SDS011;45916;52.734;6.544;2023-03-26T16:38:04;10.65;;;2.63;;
60038;SDS011;45916;52.734;6.544;2023-03-26T16:46:01;9.32;;;2.03;;
60038;SDS011;45916;52.734;6.544;2023-03-26T16:48:53;10.73;;;2.80;;
60038;SDS011;45916;52.734;6.544;2023-03-26T17:03:10;11.73;;;2.47;;
60038;SDS011;45916;52.734;6.544;2023-03-26T17:14:29;7.60;;;2.38;;
60038;SDS011;45916;52.734;6.544;2023-03-26T17:33:26;10.93;;;2.60;;
60038;SDS011;45916;52.734;6.544;2023-03-26T17:41:09;9.30;;;2.63;;
60038;SDS011;45916;52.734;6.544;2023-03-26T17:46:19;12.20;;;3.00;;
60038;SDS011;45916;52.734;6.544;2023-03-26T17:55:04;9.15;;;2.95;;
60038;SDS011;45916;52.734;6.544;2023-03-26T17:57:25;9.73;;;3.25;;
60038;SDS011;45916;52.734;6.544;2023-03-26T17:59:54;14.88;;;2.85;;
60038;SDS011;45916;52.734;6.544;2023-03-26T18:02:26;14.48;;;2.92;;
60038;SDS011;45916;52.734;6.544;2023-03-26T18:05:09;12.10;;;2.70;;
60038;SDS011;45916;52.734;6.544;2023-03-26T18:15:47;10.50;;;1.90;;
60038;SDS011;45916;52.734;6.544;2023-03-26T18:24:00;9.30;;;3.08;;
60038;SDS011;45916;52.734;6.544;2023-03-26T18:29:35;9.07;;;2.40;;
60038;SDS011;45916;52.734;6.544;2023-03-26T18:31:59;9.50;;;3.35;;
60038;SDS011;45916;52.734;6.544;2023-03-26T18:34:30;9.30;;;2.75;;
60038;SDS011;45916;52.734;6.544;2023-03-26T18:36:59;9.52;;;2.50;;
60038;SDS011;45916;52.734;6.544;2023-03-26T18:42:47;13.32;;;2.70;;
60038;SDS011;45916;52.734;6.544;2023-03-26T18:48:05;11.15;;;2.40;;
60038;SDS011;45916;52.734;6.544;2023-03-26T18:50:35;10.05;;;3.40;;
60038;SDS011;45916;52.734;6.544;2023-03-26T18:53:04;8.63;;;2.72;;
60038;SDS011;45916;52.734;6.544;2023-03-26T18:55:32;11.75;;;2.85;;
60038;SDS011;45916;52.734;6.544;2023-03-26T19:00:50;12.90;;;3.15;;
60038;SDS011;45916;52.734;6.544;2023-03-26T19:03:19;10.77;;;2.90;;
60038;SDS011;45916;52.734;6.544;2023-03-26T19:05:48;9.48;;;3.03;;
60038;SDS011;45916;52.734;6.544;2023-03-26T19:08:18;9.60;;;2.92;;
60038;SDS011;45916;52.734;6.544;2023-03-26T19:10:49;10.82;;;3.08;;
60038;SDS011;45916;52.734;6.544;2023-03-26T19:13:15;12.00;;;3.70;;
60038;SDS011;45916;52.734;6.544;2023-03-26T19:15:45;10.68;;;3.50;;
60038;SDS011;45916;52.734;6.544;2023-03-26T19:18:15;8.05;;;2.78;;
60038;SDS011;45916;52.734;6.544;2023-03-26T19:20:51;8.68;;;2.97;;
60038;SDS011;45916;52.734;6.544;2023-03-26T19:23:20;10.07;;;2.50;;
60038;SDS011;45916;52.734;6.544;2023-03-26T19:25:51;8.57;;;3.20;;
60038;SDS011;45916;52.734;6.544;2023-03-26T19:28:35;9.00;;;2.65;;
60038;SDS011;45916;52.734;6.544;2023-03-26T19:31:18;11.07;;;3.03;;
60038;SDS011;45916;52.734;6.544;2023-03-26T19:36:38;7.43;;;2.70;;
60038;SDS011;45916;52.734;6.544;2023-03-26T19:39:45;12.23;;;3.20;;
60038;SDS011;45916;52.734;6.544;2023-03-26T19:42:24;9.88;;;2.75;;
60038;SDS011;45916;52.734;6.544;2023-03-26T19:44:53;9.85;;;2.88;;
60038;SDS011;45916;52.734;6.544;2023-03-26T19:47:22;12.07;;;3.05;;
60038;SDS011;45916;52.734;6.544;2023-03-26T19:49:54;9.25;;;3.45;;
60038;SDS011;45916;52.734;6.544;2023-03-26T19:52:27;11.07;;;3.00;;
60038;SDS011;45916;52.734;6.544;2023-03-26T19:55:00;9.63;;;2.83;;
60038;SDS011;45916;52.734;6.544;2023-03-26T19:57:36;7.88;;;2.83;;
60038;SDS011;45916;52.734;6.544;2023-03-26T20:00:05;11.30;;;3.03;;
60038;SDS011;45916;52.734;6.544;2023-03-26T20:02:41;9.43;;;2.83;;
60038;SDS011;45916;52.734;6.544;2023-03-26T20:05:20;10.63;;;2.95;;
60038;SDS011;45916;52.734;6.544;2023-03-26T20:07:51;12.23;;;3.30;;
60038;SDS011;45916;52.734;6.544;2023-03-26T20:10:29;12.20;;;4.35;;
60038;SDS011;45916;52.734;6.544;2023-03-26T20:12:54;9.35;;;2.85;;
60038;SDS011;45916;52.734;6.544;2023-03-26T20:15:21;9.30;;;2.55;;
60038;SDS011;45916;52.734;6.544;2023-03-26T20:17:49;9.38;;;2.88;;
60038;SDS011;45916;52.734;6.544;2023-03-26T20:20:18;11.35;;;2.65;;
60038;SDS011;45916;52.734;6.544;2023-03-26T20:22:45;10.30;;;2.72;;
60038;SDS011;45916;52.734;6.544;2023-03-26T20:25:18;10.35;;;3.10;;
60038;SDS011;45916;52.734;6.544;2023-03-26T20:27:46;9.65;;;3.03;;
60038;SDS011;45916;52.734;6.544;2023-03-26T20:30:13;8.57;;;2.80;;
60038;SDS011;45916;52.734;6.544;2023-03-26T20:32:40;8.35;;;2.15;;
60038;SDS011;45916;52.734;6.544;2023-03-26T20:35:13;14.70;;;3.30;;
60038;SDS011;45916;52.734;6.544;2023-03-26T20:37:43;9.35;;;2.97;;
60038;SDS011;45916;52.734;6.544;2023-03-26T20:40:09;12.20;;;3.10;;
60038;SDS011;45916;52.734;6.544;2023-03-26T20:42:36;14.60;;;3.40;;
60038;SDS011;45916;52.734;6.544;2023-03-26T20:47:41;10.38;;;3.08;;
60038;SDS011;45916;52.734;6.544;2023-03-26T20:50:09;11.90;;;3.08;;
60038;SDS011;45916;52.734;6.544;2023-03-26T20:52:38;8.18;;;2.50;;
60038;SDS011;45916;52.734;6.544;2023-03-26T20:55:05;9.23;;;2.55;;
60038;SDS011;45916;52.734;6.544;2023-03-26T20:57:35;7.78;;;2.70;;
60038;SDS011;45916;52.734;6.544;2023-03-26T21:00:01;10.77;;;2.65;;
60038;SDS011;45916;52.734;6.544;2023-03-26T21:02:32;11.27;;;2.80;;
60038;SDS011;45916;52.734;6.544;2023-03-26T21:04:58;8.35;;;2.65;;
60038;SDS011;45916;52.734;6.544;2023-03-26T21:07:24;10.23;;;2.88;;
60038;SDS011;45916;52.734;6.544;2023-03-26T21:09:50;8.88;;;2.80;;
60038;SDS011;45916;52.734;6.544;2023-03-26T21:12:38;8.80;;;2.63;;
60038;SDS011;45916;52.734;6.544;2023-03-26T21:15:07;10.18;;;3.90;;
60038;SDS011;45916;52.734;6.544;2023-03-26T21:17:34;9.43;;;2.70;;
60038;SDS011;45916;52.734;6.544;2023-03-26T21:20:01;11.02;;;3.00;;
60038;SDS011;45916;52.734;6.544;2023-03-26T21:33:01;11.82;;;2.95;;
60038;SDS011;45916;52.734;6.544;2023-03-26T21:35:29;6.50;;;2.45;;
60038;SDS011;45916;52.734;6.544;2023-03-26T21:37:55;9.77;;;2.88;;
60038;SDS011;45916;52.734;6.544;2023-03-26T21:40:21;9.00;;;3.10;;
60038;SDS011;45916;52.734;6.544;2023-03-26T21:42:49;10.38;;;2.85;;
60038;SDS011;45916;52.734;6.544;2023-03-26T21:45:16;13.00;;;2.85;;
60038;SDS011;45916;52.734;6.544;2023-03-26T21:47:43;10.60;;;2.78;;
60038;SDS011;45916;52.734;6.544;2023-03-26T21:50:20;12.13;;;2.72;;
60038;SDS011;45916;52.734;6.544;2023-03-26T21:52:47;7.53;;;2.90;;
60038;SDS011;45916;52.734;6.544;2023-03-26T21:55:15;9.85;;;2.65;;
60038;SDS011;45916;52.734;6.544;2023-03-26T22:00:12;10.18;;;2.88;;